sensor_id;sensor_type;location;lat;lon;timestamp;temperature;humidity
59067;DHT22;44854;50.838;4.438;2023-06-04T04:03:42;13.90;94.80
59067;DHT22;44854;50.838;4.438;2023-06-04T04:06:09;14.00;95.00
59067;DHT22;44854;50.838;4.438;2023-06-04T04:08:35;13.90;94.90
59067;DHT22;44854;50.838;4.438;2023-06-04T04:11:02;13.90;95.00
59067;DHT22;44854;50.838;4.438;2023-06-04T04:13:28;14.00;95.10
59067;DHT22;44854;50.838;4.438;2023-06-04T04:15:53;13.90;95.10
59067;DHT22;44854;50.838;4.438;2023-06-04T04:18:19;13.90;95.20
59067;DHT22;44854;50.838;4.438;2023-06-04T04:20:45;13.80;95.80
59067;DHT22;44854;50.838;4.438;2023-06-04T04:23:11;13.80;95.80
59067;DHT22;44854;50.838;4.438;2023-06-04T04:25:37;13.90;95.90
59067;DHT22;44854;50.838;4.438;2023-06-04T04:28:03;13.90;95.70
59067;DHT22;44854;50.838;4.438;2023-06-04T04:30:35;14.00;95.60
59067;DHT22;44854;50.838;4.438;2023-06-04T04:33:01;14.00;95.80
59067;DHT22;44854;50.838;4.438;2023-06-04T04:35:26;14.10;95.80
59067;DHT22;44854;50.838;4.438;2023-06-04T04:37:52;14.10;95.80
59067;DHT22;44854;50.838;4.438;2023-06-04T04:40:17;14.20;95.80
59067;DHT22;44854;50.838;4.438;2023-06-04T04:42:43;14.10;95.80
59067;DHT22;44854;50.838;4.438;2023-06-04T04:45:09;13.90;96.10
59067;DHT22;44854;50.838;4.438;2023-06-04T04:47:35;13.90;96.30
59067;DHT22;44854;50.838;4.438;2023-06-04T04:50:00;13.70;96.60
59067;DHT22;44854;50.838;4.438;2023-06-04T04:52:26;13.70;96.90
59067;DHT22;44854;50.838;4.438;2023-06-04T04:54:51;13.80;96.90
59067;DHT22;44854;50.838;4.438;2023-06-04T04:57:21;13.90;96.90
59067;DHT22;44854;50.838;4.438;2023-06-04T04:59:47;14.00;96.70
59067;DHT22;44854;50.838;4.438;2023-06-04T05:02:12;14.00;96.70
59067;DHT22;44854;50.838;4.438;2023-06-04T05:04:38;14.00;96.90
59067;DHT22;44854;50.838;4.438;2023-06-04T05:07:03;14.00;97.00
59067;DHT22;44854;50.838;4.438;2023-06-04T05:09:29;14.10;97.10
59067;DHT22;44854;50.838;4.438;2023-06-04T05:11:54;14.20;96.90
59067;DHT22;44854;50.838;4.438;2023-06-04T05:14:20;14.20;96.80
59067;DHT22;44854;50.838;4.438;2023-06-04T05:16:46;14.30;96.80
59067;DHT22;44854;50.838;4.438;2023-06-04T05:19:14;14.30;97.00
59067;DHT22;44854;50.838;4.438;2023-06-04T05:21:41;14.40;97.10
59067;DHT22;44854;50.838;4.438;2023-06-04T05:24:07;14.30;97.10
59067;DHT22;44854;50.838;4.438;2023-06-04T05:26:33;14.10;97.20
59067;DHT22;44854;50.838;4.438;2023-06-04T05:28:59;14.30;97.20
59067;DHT22;44854;50.838;4.438;2023-06-04T05:31:24;14.30;97.20
59067;DHT22;44854;50.838;4.438;2023-06-04T05:33:51;14.40;97.20
59067;DHT22;44854;50.838;4.438;2023-06-04T05:36:17;14.50;97.30
59067;DHT22;44854;50.838;4.438;2023-06-04T05:38:43;14.40;97.10
59067;DHT22;44854;50.838;4.438;2023-06-04T05:41:09;14.50;97.10
59067;DHT22;44854;50.838;4.438;2023-06-04T05:43:34;14.60;97.20
59067;DHT22;44854;50.838;4.438;2023-06-04T05:46:00;14.30;97.30
59067;DHT22;44854;50.838;4.438;2023-06-04T05:48:26;14.40;97.50
59067;DHT22;44854;50.838;4.438;2023-06-04T05:50:51;14.40;97.40
59067;DHT22;44854;50.838;4.438;2023-06-04T05:53:17;14.50;97.30
59067;DHT22;44854;50.838;4.438;2023-06-04T05:55:42;14.60;97.00
59067;DHT22;44854;50.838;4.438;2023-06-04T05:58:08;14.60;97.20
59067;DHT22;44854;50.838;4.438;2023-06-04T06:00:33;14.70;97.10
59067;DHT22;44854;50.838;4.438;2023-06-04T06:03:00;14.80;97.10
59067;DHT22;44854;50.838;4.438;2023-06-04T06:05:26;14.80;97.20
59067;DHT22;44854;50.838;4.438;2023-06-04T06:07:51;14.90;97.00
59067;DHT22;44854;50.838;4.438;2023-06-04T06:10:17;15.00;96.60
59067;DHT22;44854;50.838;4.438;2023-06-04T06:12:42;15.20;96.90
59067;DHT22;44854;50.838;4.438;2023-06-04T06:15:08;15.40;96.40
59067;DHT22;44854;50.838;4.438;2023-06-04T06:17:34;15.50;95.90
59067;DHT22;44854;50.838;4.438;2023-06-04T06:20:00;15.70;95.40
59067;DHT22;44854;50.838;4.438;2023-06-04T06:22:26;15.70;95.40
59067;DHT22;44854;50.838;4.438;2023-06-04T06:24:52;15.90;95.40
59067;DHT22;44854;50.838;4.438;2023-06-04T06:27:18;15.90;95.20
59067;DHT22;44854;50.838;4.438;2023-06-04T06:29:44;15.90;95.00
59067;DHT22;44854;50.838;4.438;2023-06-04T06:32:10;16.00;95.10
59067;DHT22;44854;50.838;4.438;2023-06-04T06:34:35;16.10;94.60
59067;DHT22;44854;50.838;4.438;2023-06-04T06:37:02;16.20;94.70
59067;DHT22;44854;50.838;4.438;2023-06-04T06:39:28;16.30;94.40
59067;DHT22;44854;50.838;4.438;2023-06-04T06:41:56;16.40;94.30
59067;DHT22;44854;50.838;4.438;2023-06-04T06:44:22;16.50;94.00
59067;DHT22;44854;50.838;4.438;2023-06-04T06:46:47;16.70;93.80
59067;DHT22;44854;50.838;4.438;2023-06-04T06:49:14;16.60;93.70
59067;DHT22;44854;50.838;4.438;2023-06-04T06:51:40;16.80;93.60
59067;DHT22;44854;50.838;4.438;2023-06-04T06:54:05;16.70;93.50
59067;DHT22;44854;50.838;4.438;2023-06-04T06:56:31;16.80;93.60
59067;DHT22;44854;50.838;4.438;2023-06-04T06:58:56;17.00;93.40
59067;DHT22;44854;50.838;4.438;2023-06-04T07:01:22;16.90;93.00
59067;DHT22;44854;50.838;4.438;2023-06-04T07:03:48;17.10;93.00
59067;DHT22;44854;50.838;4.438;2023-06-04T07:06:13;17.40;92.90
59067;DHT22;44854;50.838;4.438;2023-06-04T07:08:39;17.50;92.60
59067;DHT22;44854;50.838;4.438;2023-06-04T07:11:04;17.70;91.70
59067;DHT22;44854;50.838;4.438;2023-06-04T07:13:30;17.70;91.50
59067;DHT22;44854;50.838;4.438;2023-06-04T07:16:00;17.90;91.30
59067;DHT22;44854;50.838;4.438;2023-06-04T07:18:26;17.90;91.40
59067;DHT22;44854;50.838;4.438;2023-06-04T07:20:51;17.80;91.60
59067;DHT22;44854;50.838;4.438;2023-06-04T07:23:18;18.00;91.10
59067;DHT22;44854;50.838;4.438;2023-06-04T07:25:43;18.10;91.00
59067;DHT22;44854;50.838;4.438;2023-06-04T07:28:09;17.90;90.80
59067;DHT22;44854;50.838;4.438;2023-06-04T07:30:35;18.00;90.70
59067;DHT22;44854;50.838;4.438;2023-06-04T07:33:02;18.30;90.60
59067;DHT22;44854;50.838;4.438;2023-06-04T07:35:27;18.40;90.10
59067;DHT22;44854;50.838;4.438;2023-06-04T07:37:53;18.40;89.30
59067;DHT22;44854;50.838;4.438;2023-06-04T07:40:18;18.40;90.00
59067;DHT22;44854;50.838;4.438;2023-06-04T07:42:44;18.50;89.50
59067;DHT22;44854;50.838;4.438;2023-06-04T07:45:10;18.80;90.10
59067;DHT22;44854;50.838;4.438;2023-06-04T07:47:36;18.80;89.40
59067;DHT22;44854;50.838;4.438;2023-06-04T07:50:02;18.80;89.90
59067;DHT22;44854;50.838;4.438;2023-06-04T07:52:28;18.80;90.30
59067;DHT22;44854;50.838;4.438;2023-06-04T07:54:54;18.80;89.40
59067;DHT22;44854;50.838;4.438;2023-06-04T07:57:19;18.70;88.60
59067;DHT22;44854;50.838;4.438;2023-06-04T07:59:45;18.60;88.70
59067;DHT22;44854;50.838;4.438;2023-06-04T08:02:10;18.50;89.00
59067;DHT22;44854;50.838;4.438;2023-06-04T08:04:36;18.90;89.40
59067;DHT22;44854;50.838;4.438;2023-06-04T08:07:01;19.00;89.00
59067;DHT22;44854;50.838;4.438;2023-06-04T08:09:27;19.20;88.10
59067;DHT22;44854;50.838;4.438;2023-06-04T08:11:52;19.30;87.60
59067;DHT22;44854;50.838;4.438;2023-06-04T08:14:18;19.40;87.00
59067;DHT22;44854;50.838;4.438;2023-06-04T08:16:45;19.40;87.10
59067;DHT22;44854;50.838;4.438;2023-06-04T08:19:10;19.40;86.00
59067;DHT22;44854;50.838;4.438;2023-06-04T08:21:36;19.50;86.30
59067;DHT22;44854;50.838;4.438;2023-06-04T08:24:02;19.80;86.00
59067;DHT22;44854;50.838;4.438;2023-06-04T08:26:28;19.90;85.50
59067;DHT22;44854;50.838;4.438;2023-06-04T08:28:54;19.70;85.00
59067;DHT22;44854;50.838;4.438;2023-06-04T08:31:20;19.40;84.70
59067;DHT22;44854;50.838;4.438;2023-06-04T08:33:46;19.20;84.30
59067;DHT22;44854;50.838;4.438;2023-06-04T08:36:12;19.50;84.50
59067;DHT22;44854;50.838;4.438;2023-06-04T08:38:38;19.60;84.10
59067;DHT22;44854;50.838;4.438;2023-06-04T08:41:11;19.70;83.60
59067;DHT22;44854;50.838;4.438;2023-06-04T08:43:38;19.70;83.70
59067;DHT22;44854;50.838;4.438;2023-06-04T08:46:04;19.90;83.20
59067;DHT22;44854;50.838;4.438;2023-06-04T08:48:34;20.00;82.40
59067;DHT22;44854;50.838;4.438;2023-06-04T08:50:59;19.90;81.10
59067;DHT22;44854;50.838;4.438;2023-06-04T08:53:27;20.00;80.80
59067;DHT22;44854;50.838;4.438;2023-06-04T08:55:52;20.10;80.90
59067;DHT22;44854;50.838;4.438;2023-06-04T08:58:18;20.40;81.50
59067;DHT22;44854;50.838;4.438;2023-06-04T09:00:44;20.50;81.40
59067;DHT22;44854;50.838;4.438;2023-06-04T09:03:10;20.60;79.10
59067;DHT22;44854;50.838;4.438;2023-06-04T09:05:36;20.60;79.30
59067;DHT22;44854;50.838;4.438;2023-06-04T09:08:02;20.40;79.10
59067;DHT22;44854;50.838;4.438;2023-06-04T09:10:29;20.60;80.50
59067;DHT22;44854;50.838;4.438;2023-06-04T09:12:56;20.70;78.70
59067;DHT22;44854;50.838;4.438;2023-06-04T09:15:22;20.50;79.00
59067;DHT22;44854;50.838;4.438;2023-06-04T09:17:48;20.50;79.00
59067;DHT22;44854;50.838;4.438;2023-06-04T09:20:22;20.50;78.70
59067;DHT22;44854;50.838;4.438;2023-06-04T09:22:48;20.70;77.20
59067;DHT22;44854;50.838;4.438;2023-06-04T09:25:26;20.80;77.60
59067;DHT22;44854;50.838;4.438;2023-06-04T09:27:56;20.90;77.00
59067;DHT22;44854;50.838;4.438;2023-06-04T09:30:22;20.90;80.20
59067;DHT22;44854;50.838;4.438;2023-06-04T09:32:48;20.90;77.70
59067;DHT22;44854;50.838;4.438;2023-06-04T09:35:14;21.00;77.50
59067;DHT22;44854;50.838;4.438;2023-06-04T09:37:41;21.10;76.10
59067;DHT22;44854;50.838;4.438;2023-06-04T09:40:07;21.20;76.90
59067;DHT22;44854;50.838;4.438;2023-06-04T09:42:42;21.30;76.10
59067;DHT22;44854;50.838;4.438;2023-06-04T09:45:09;21.30;76.40
59067;DHT22;44854;50.838;4.438;2023-06-04T09:47:41;21.20;76.30
59067;DHT22;44854;50.838;4.438;2023-06-04T09:50:07;21.30;77.50
59067;DHT22;44854;50.838;4.438;2023-06-04T09:52:33;21.30;76.40
59067;DHT22;44854;50.838;4.438;2023-06-04T09:54:59;21.30;76.60
59067;DHT22;44854;50.838;4.438;2023-06-04T09:57:25;21.50;76.60
59067;DHT22;44854;50.838;4.438;2023-06-04T09:59:53;21.60;76.40
59067;DHT22;44854;50.838;4.438;2023-06-04T10:02:20;21.50;75.60
59067;DHT22;44854;50.838;4.438;2023-06-04T10:04:49;21.60;76.40
59067;DHT22;44854;50.838;4.438;2023-06-04T10:07:14;21.60;75.40
59067;DHT22;44854;50.838;4.438;2023-06-04T10:09:42;21.80;73.80
59067;DHT22;44854;50.838;4.438;2023-06-04T10:12:13;21.90;72.80
59067;DHT22;44854;50.838;4.438;2023-06-04T10:14:52;22.00;73.40
59067;DHT22;44854;50.838;4.438;2023-06-04T10:17:20;22.20;72.00
59067;DHT22;44854;50.838;4.438;2023-06-04T10:19:46;22.20;71.30
59067;DHT22;44854;50.838;4.438;2023-06-04T10:22:13;22.20;71.10
59067;DHT22;44854;50.838;4.438;2023-06-04T10:24:38;22.30;72.50
59067;DHT22;44854;50.838;4.438;2023-06-04T10:27:04;22.20;69.30
59067;DHT22;44854;50.838;4.438;2023-06-04T10:29:36;22.00;70.30
59067;DHT22;44854;50.838;4.438;2023-06-04T10:32:01;21.90;70.60
59067;DHT22;44854;50.838;4.438;2023-06-04T10:34:27;22.00;70.80
59067;DHT22;44854;50.838;4.438;2023-06-04T10:36:53;22.30;70.50
59067;DHT22;44854;50.838;4.438;2023-06-04T10:39:25;22.40;70.00
59067;DHT22;44854;50.838;4.438;2023-06-04T10:41:58;22.60;70.80
59067;DHT22;44854;50.838;4.438;2023-06-04T10:44:24;22.80;70.70
59067;DHT22;44854;50.838;4.438;2023-06-04T10:46:50;22.90;70.10
59067;DHT22;44854;50.838;4.438;2023-06-04T10:49:25;23.00;68.60
59067;DHT22;44854;50.838;4.438;2023-06-04T10:51:51;23.10;68.90
59067;DHT22;44854;50.838;4.438;2023-06-04T10:54:23;22.90;66.10
59067;DHT22;44854;50.838;4.438;2023-06-04T10:56:52;22.70;66.90
59067;DHT22;44854;50.838;4.438;2023-06-04T10:59:18;22.90;68.10
59067;DHT22;44854;50.838;4.438;2023-06-04T11:01:44;23.10;67.70
59067;DHT22;44854;50.838;4.438;2023-06-04T11:04:23;23.10;65.90
59067;DHT22;44854;50.838;4.438;2023-06-04T11:07:10;23.30;65.70
59067;DHT22;44854;50.838;4.438;2023-06-04T11:09:49;23.20;65.50
59067;DHT22;44854;50.838;4.438;2023-06-04T11:12:14;23.20;66.10
59067;DHT22;44854;50.838;4.438;2023-06-04T11:14:40;23.30;66.30
59067;DHT22;44854;50.838;4.438;2023-06-04T11:17:13;23.20;67.30
59067;DHT22;44854;50.838;4.438;2023-06-04T11:19:39;23.20;68.30
59067;DHT22;44854;50.838;4.438;2023-06-04T11:22:05;23.50;68.20
59067;DHT22;44854;50.838;4.438;2023-06-04T11:24:31;23.50;66.50
59067;DHT22;44854;50.838;4.438;2023-06-04T11:26:57;23.40;65.20
59067;DHT22;44854;50.838;4.438;2023-06-04T11:29:25;23.40;64.50
59067;DHT22;44854;50.838;4.438;2023-06-04T11:31:50;23.20;64.60
59067;DHT22;44854;50.838;4.438;2023-06-04T11:34:29;23.20;64.40
59067;DHT22;44854;50.838;4.438;2023-06-04T11:36:55;23.10;63.30
59067;DHT22;44854;50.838;4.438;2023-06-04T11:39:21;23.10;64.30
59067;DHT22;44854;50.838;4.438;2023-06-04T11:41:46;23.20;63.20
59067;DHT22;44854;50.838;4.438;2023-06-04T11:44:12;23.30;63.60
59067;DHT22;44854;50.838;4.438;2023-06-04T11:46:41;23.50;64.50
59067;DHT22;44854;50.838;4.438;2023-06-04T11:49:17;23.70;63.30
59067;DHT22;44854;50.838;4.438;2023-06-04T11:51:49;23.90;62.20
59067;DHT22;44854;50.838;4.438;2023-06-04T11:54:15;23.90;61.50
59067;DHT22;44854;50.838;4.438;2023-06-04T11:56:42;24.00;60.90
59067;DHT22;44854;50.838;4.438;2023-06-04T11:59:09;24.00;61.40
59067;DHT22;44854;50.838;4.438;2023-06-04T12:01:45;23.80;63.20
59067;DHT22;44854;50.838;4.438;2023-06-04T12:04:13;23.70;64.00
59067;DHT22;44854;50.838;4.438;2023-06-04T12:06:38;23.80;63.10
59067;DHT22;44854;50.838;4.438;2023-06-04T12:09:04;23.80;62.60
59067;DHT22;44854;50.838;4.438;2023-06-04T12:14:06;23.90;61.00
59067;DHT22;44854;50.838;4.438;2023-06-04T12:16:32;24.10;60.70
59067;DHT22;44854;50.838;4.438;2023-06-04T12:19:05;24.10;60.90
59067;DHT22;44854;50.838;4.438;2023-06-04T12:21:31;24.30;61.30
59067;DHT22;44854;50.838;4.438;2023-06-04T12:24:15;24.50;61.20
59067;DHT22;44854;50.838;4.438;2023-06-04T12:26:41;24.40;62.30
59067;DHT22;44854;50.838;4.438;2023-06-04T12:29:10;24.00;62.00
59067;DHT22;44854;50.838;4.438;2023-06-04T12:31:40;24.20;63.10
59067;DHT22;44854;50.838;4.438;2023-06-04T12:34:06;24.50;63.00
59067;DHT22;44854;50.838;4.438;2023-06-04T12:36:32;24.70;61.60
59067;DHT22;44854;50.838;4.438;2023-06-04T12:38:59;24.80;61.40
59067;DHT22;44854;50.838;4.438;2023-06-04T12:41:26;24.90;61.20
59067;DHT22;44854;50.838;4.438;2023-06-04T12:43:51;24.90;60.80
59067;DHT22;44854;50.838;4.438;2023-06-04T12:46:17;24.90;60.00
59067;DHT22;44854;50.838;4.438;2023-06-04T12:48:42;24.80;61.00
59067;DHT22;44854;50.838;4.438;2023-06-04T12:51:08;25.00;61.90
59067;DHT22;44854;50.838;4.438;2023-06-04T12:53:38;25.20;62.30
59067;DHT22;44854;50.838;4.438;2023-06-04T12:56:03;25.10;59.90
59067;DHT22;44854;50.838;4.438;2023-06-04T12:58:29;24.70;60.70
59067;DHT22;44854;50.838;4.438;2023-06-04T13:00:55;24.80;60.50
59067;DHT22;44854;50.838;4.438;2023-06-04T13:03:20;24.40;61.10
59067;DHT22;44854;50.838;4.438;2023-06-04T13:05:46;24.40;62.10
59067;DHT22;44854;50.838;4.438;2023-06-04T13:08:11;24.70;62.70
59067;DHT22;44854;50.838;4.438;2023-06-04T13:10:37;24.90;61.40
59067;DHT22;44854;50.838;4.438;2023-06-04T13:13:03;25.20;59.60
59067;DHT22;44854;50.838;4.438;2023-06-04T13:15:28;25.30;59.60
59067;DHT22;44854;50.838;4.438;2023-06-04T13:17:54;25.20;58.40
59067;DHT22;44854;50.838;4.438;2023-06-04T13:20:20;25.00;59.80
59067;DHT22;44854;50.838;4.438;2023-06-04T13:22:46;24.80;59.70
59067;DHT22;44854;50.838;4.438;2023-06-04T13:25:12;24.70;59.40
59067;DHT22;44854;50.838;4.438;2023-06-04T13:27:38;24.70;59.30
59067;DHT22;44854;50.838;4.438;2023-06-04T13:30:04;24.40;60.30
59067;DHT22;44854;50.838;4.438;2023-06-04T13:32:30;24.40;60.10
59067;DHT22;44854;50.838;4.438;2023-06-04T13:34:56;24.70;60.00
59067;DHT22;44854;50.838;4.438;2023-06-04T13:37:21;24.70;59.70
59067;DHT22;44854;50.838;4.438;2023-06-04T13:39:47;24.90;59.30
59067;DHT22;44854;50.838;4.438;2023-06-04T13:42:13;24.90;60.00
59067;DHT22;44854;50.838;4.438;2023-06-04T13:44:38;24.90;59.80
59067;DHT22;44854;50.838;4.438;2023-06-04T13:47:04;25.10;59.40
59067;DHT22;44854;50.838;4.438;2023-06-04T13:49:32;25.20;59.90
59067;DHT22;44854;50.838;4.438;2023-06-04T13:51:57;25.50;59.80
59067;DHT22;44854;50.838;4.438;2023-06-04T13:54:23;25.60;59.70
59067;DHT22;44854;50.838;4.438;2023-06-04T13:56:48;25.30;58.20
59067;DHT22;44854;50.838;4.438;2023-06-04T13:59:14;25.10;58.70
59067;DHT22;44854;50.838;4.438;2023-06-04T14:01:39;25.20;59.70
59067;DHT22;44854;50.838;4.438;2023-06-04T14:04:05;25.30;59.30
59067;DHT22;44854;50.838;4.438;2023-06-04T14:06:32;25.00;58.00
59067;DHT22;44854;50.838;4.438;2023-06-04T14:08:58;25.00;58.30
59067;DHT22;44854;50.838;4.438;2023-06-04T14:11:23;24.70;57.80
59067;DHT22;44854;50.838;4.438;2023-06-04T14:13:49;24.70;59.00
59067;DHT22;44854;50.838;4.438;2023-06-04T14:16:15;25.00;59.90
59067;DHT22;44854;50.838;4.438;2023-06-04T14:18:40;25.00;58.10
59067;DHT22;44854;50.838;4.438;2023-06-04T14:21:06;25.10;57.70
59067;DHT22;44854;50.838;4.438;2023-06-04T14:23:31;25.20;58.10
59067;DHT22;44854;50.838;4.438;2023-06-04T14:25:57;25.30;57.40
59067;DHT22;44854;50.838;4.438;2023-06-04T14:28:22;25.30;57.10
59067;DHT22;44854;50.838;4.438;2023-06-04T14:30:48;25.30;56.60
59067;DHT22;44854;50.838;4.438;2023-06-04T14:33:14;25.40;55.90
59067;DHT22;44854;50.838;4.438;2023-06-04T14:35:39;25.20;56.70
59067;DHT22;44854;50.838;4.438;2023-06-04T14:38:09;25.30;56.80
59067;DHT22;44854;50.838;4.438;2023-06-04T14:40:35;25.30;56.80
59067;DHT22;44854;50.838;4.438;2023-06-04T14:43:03;25.10;56.50
59067;DHT22;44854;50.838;4.438;2023-06-04T14:45:28;25.20;55.90
59067;DHT22;44854;50.838;4.438;2023-06-04T14:47:54;25.30;56.20
59067;DHT22;44854;50.838;4.438;2023-06-04T14:50:20;25.40;56.40
59067;DHT22;44854;50.838;4.438;2023-06-04T14:52:47;25.30;56.30
59067;DHT22;44854;50.838;4.438;2023-06-04T14:55:13;25.20;55.70
59067;DHT22;44854;50.838;4.438;2023-06-04T14:57:39;25.20;56.10
59067;DHT22;44854;50.838;4.438;2023-06-04T15:00:05;25.20;57.50
59067;DHT22;44854;50.838;4.438;2023-06-04T15:02:31;25.40;56.50
59067;DHT22;44854;50.838;4.438;2023-06-04T15:04:57;25.50;55.20
59067;DHT22;44854;50.838;4.438;2023-06-04T15:07:22;25.40;55.30
59067;DHT22;44854;50.838;4.438;2023-06-04T15:09:48;25.30;55.90
59067;DHT22;44854;50.838;4.438;2023-06-04T15:12:14;25.40;56.00
59067;DHT22;44854;50.838;4.438;2023-06-04T15:14:44;25.40;55.30
59067;DHT22;44854;50.838;4.438;2023-06-04T15:17:09;25.40;55.70
59067;DHT22;44854;50.838;4.438;2023-06-04T15:19:35;25.30;54.10
59067;DHT22;44854;50.838;4.438;2023-06-04T15:22:00;25.30;54.00
59067;DHT22;44854;50.838;4.438;2023-06-04T15:24:26;25.20;54.30
59067;DHT22;44854;50.838;4.438;2023-06-04T15:26:51;25.10;54.60
59067;DHT22;44854;50.838;4.438;2023-06-04T15:29:17;25.40;55.00
59067;DHT22;44854;50.838;4.438;2023-06-04T15:31:43;25.50;54.60
59067;DHT22;44854;50.838;4.438;2023-06-04T15:34:08;25.40;54.30
59067;DHT22;44854;50.838;4.438;2023-06-04T15:36:34;25.50;54.40
59067;DHT22;44854;50.838;4.438;2023-06-04T15:39:00;25.40;54.40
59067;DHT22;44854;50.838;4.438;2023-06-04T15:41:25;25.40;54.80
59067;DHT22;44854;50.838;4.438;2023-06-04T15:43:51;25.60;54.90
59067;DHT22;44854;50.838;4.438;2023-06-04T15:46:18;25.40;53.30
59067;DHT22;44854;50.838;4.438;2023-06-04T15:48:43;25.30;54.10
59067;DHT22;44854;50.838;4.438;2023-06-04T15:51:10;25.50;54.70
59067;DHT22;44854;50.838;4.438;2023-06-04T15:53:35;25.60;54.40
59067;DHT22;44854;50.838;4.438;2023-06-04T15:56:01;25.70;53.80
59067;DHT22;44854;50.838;4.438;2023-06-04T15:58:26;25.60;54.00
59067;DHT22;44854;50.838;4.438;2023-06-04T16:00:52;25.60;54.10
59067;DHT22;44854;50.838;4.438;2023-06-04T16:03:18;25.40;54.00
59067;DHT22;44854;50.838;4.438;2023-06-04T16:05:43;25.40;53.80
59067;DHT22;44854;50.838;4.438;2023-06-04T16:08:09;25.30;54.10
59067;DHT22;44854;50.838;4.438;2023-06-04T16:10:34;25.30;53.60
59067;DHT22;44854;50.838;4.438;2023-06-04T16:13:00;25.20;54.10
59067;DHT22;44854;50.838;4.438;2023-06-04T16:15:25;25.20;54.40
59067;DHT22;44854;50.838;4.438;2023-06-04T16:17:51;25.20;53.40
59067;DHT22;44854;50.838;4.438;2023-06-04T16:20:16;25.20;53.80
59067;DHT22;44854;50.838;4.438;2023-06-04T16:22:42;25.10;54.60
59067;DHT22;44854;50.838;4.438;2023-06-04T16:25:08;25.10;55.60
59067;DHT22;44854;50.838;4.438;2023-06-04T16:27:33;25.20;55.60
59067;DHT22;44854;50.838;4.438;2023-06-04T16:29:59;25.30;56.10
59067;DHT22;44854;50.838;4.438;2023-06-04T16:32:25;25.20;55.70
59067;DHT22;44854;50.838;4.438;2023-06-04T16:34:50;25.40;55.30
59067;DHT22;44854;50.838;4.438;2023-06-04T16:37:16;25.30;54.90
59067;DHT22;44854;50.838;4.438;2023-06-04T16:39:41;25.20;55.50
59067;DHT22;44854;50.838;4.438;2023-06-04T16:42:07;25.20;55.40
59067;DHT22;44854;50.838;4.438;2023-06-04T16:44:35;25.10;55.30
59067;DHT22;44854;50.838;4.438;2023-06-04T16:47:01;25.20;56.00
59067;DHT22;44854;50.838;4.438;2023-06-04T16:49:26;25.20;56.20
59067;DHT22;44854;50.838;4.438;2023-06-04T16:51:52;25.30;56.20
59067;DHT22;44854;50.838;4.438;2023-06-04T16:54:18;25.10;55.90
59067;DHT22;44854;50.838;4.438;2023-06-04T16:56:43;24.90;57.10
59067;DHT22;44854;50.838;4.438;2023-06-04T16:59:09;25.00;57.70
59067;DHT22;44854;50.838;4.438;2023-06-04T17:01:34;25.30;57.70
59067;DHT22;44854;50.838;4.438;2023-06-04T17:04:02;25.40;57.50
59067;DHT22;44854;50.838;4.438;2023-06-04T17:06:27;25.20;58.00
59067;DHT22;44854;50.838;4.438;2023-06-04T17:08:54;25.20;58.50
59067;DHT22;44854;50.838;4.438;2023-06-04T17:11:20;25.20;57.70
59067;DHT22;44854;50.838;4.438;2023-06-04T17:13:46;25.30;58.00
59067;DHT22;44854;50.838;4.438;2023-06-04T17:16:12;25.40;57.60
59067;DHT22;44854;50.838;4.438;2023-06-04T17:18:41;25.30;57.80
59067;DHT22;44854;50.838;4.438;2023-06-04T17:21:06;25.40;58.70
59067;DHT22;44854;50.838;4.438;2023-06-04T17:23:32;25.50;58.50
59067;DHT22;44854;50.838;4.438;2023-06-04T17:25:57;25.50;57.90
59067;DHT22;44854;50.838;4.438;2023-06-04T17:28:24;25.70;58.40
59067;DHT22;44854;50.838;4.438;2023-06-04T17:30:51;25.90;58.30
59067;DHT22;44854;50.838;4.438;2023-06-04T17:33:16;26.10;58.10
59067;DHT22;44854;50.838;4.438;2023-06-04T17:35:42;26.20;57.80
59067;DHT22;44854;50.838;4.438;2023-06-04T17:38:08;26.40;57.60
59067;DHT22;44854;50.838;4.438;2023-06-04T17:40:33;26.70;57.00
59067;DHT22;44854;50.838;4.438;2023-06-04T17:42:59;26.80;57.50
59067;DHT22;44854;50.838;4.438;2023-06-04T17:45:24;27.00;57.40
59067;DHT22;44854;50.838;4.438;2023-06-04T17:47:50;26.90;57.50
59067;DHT22;44854;50.838;4.438;2023-06-04T17:50:15;27.20;57.20
59067;DHT22;44854;50.838;4.438;2023-06-04T17:52:41;26.90;56.80
59067;DHT22;44854;50.838;4.438;2023-06-04T17:55:07;27.20;57.20
59067;DHT22;44854;50.838;4.438;2023-06-04T17:57:34;27.50;56.70
59067;DHT22;44854;50.838;4.438;2023-06-04T17:59:59;27.30;56.60
59067;DHT22;44854;50.838;4.438;2023-06-04T18:02:26;26.70;56.80
59067;DHT22;44854;50.838;4.438;2023-06-04T18:04:52;26.80;56.90
59067;DHT22;44854;50.838;4.438;2023-06-04T18:07:18;27.10;57.10
59067;DHT22;44854;50.838;4.438;2023-06-04T18:09:44;27.40;57.10
59067;DHT22;44854;50.838;4.438;2023-06-04T18:12:09;27.70;56.30
59067;DHT22;44854;50.838;4.438;2023-06-04T18:14:36;27.60;55.90
59067;DHT22;44854;50.838;4.438;2023-06-04T18:17:02;27.60;56.10
59067;DHT22;44854;50.838;4.438;2023-06-04T18:19:28;27.70;56.30
59067;DHT22;44854;50.838;4.438;2023-06-04T18:21:54;27.70;56.30
59067;DHT22;44854;50.838;4.438;2023-06-04T18:24:19;27.60;56.80
59067;DHT22;44854;50.838;4.438;2023-06-04T18:26:45;27.70;56.30
59067;DHT22;44854;50.838;4.438;2023-06-04T18:29:11;27.60;56.40
59067;DHT22;44854;50.838;4.438;2023-06-04T18:31:37;27.60;56.10
59067;DHT22;44854;50.838;4.438;2023-06-04T18:34:02;27.40;56.60
59067;DHT22;44854;50.838;4.438;2023-06-04T18:36:29;27.50;56.30
59067;DHT22;44854;50.838;4.438;2023-06-04T18:38:56;27.20;56.30
59067;DHT22;44854;50.838;4.438;2023-06-04T18:41:22;26.60;57.50
59067;DHT22;44854;50.838;4.438;2023-06-04T18:43:48;26.30;58.00
59067;DHT22;44854;50.838;4.438;2023-06-04T18:46:14;25.70;59.10
59067;DHT22;44854;50.838;4.438;2023-06-04T18:48:39;25.50;59.30
59067;DHT22;44854;50.838;4.438;2023-06-04T18:51:05;25.40;59.80
59067;DHT22;44854;50.838;4.438;2023-06-04T18:53:30;25.20;60.20
59067;DHT22;44854;50.838;4.438;2023-06-04T18:55:56;25.20;60.20
59067;DHT22;44854;50.838;4.438;2023-06-04T18:58:23;25.10;60.60
59067;DHT22;44854;50.838;4.438;2023-06-04T19:00:49;25.10;61.10
59067;DHT22;44854;50.838;4.438;2023-06-04T19:03:14;25.00;61.20
59067;DHT22;44854;50.838;4.438;2023-06-04T19:05:40;24.90;61.70
59067;DHT22;44854;50.838;4.438;2023-06-04T19:08:05;24.90;62.00
59067;DHT22;44854;50.838;4.438;2023-06-04T19:10:31;24.70;61.90
59067;DHT22;44854;50.838;4.438;2023-06-04T19:12:57;24.70;62.60
59067;DHT22;44854;50.838;4.438;2023-06-04T19:15:22;24.50;63.40
59067;DHT22;44854;50.838;4.438;2023-06-04T19:17:48;24.20;63.20
59067;DHT22;44854;50.838;4.438;2023-06-04T19:20:14;24.10;64.10
59067;DHT22;44854;50.838;4.438;2023-06-04T19:22:41;24.00;64.80
59067;DHT22;44854;50.838;4.438;2023-06-04T19:25:07;23.90;66.90
59067;DHT22;44854;50.838;4.438;2023-06-04T19:27:34;23.60;71.90
59067;DHT22;44854;50.838;4.438;2023-06-04T19:30:00;23.40;74.30